SPQU/AQP METAR and TAF weather

Enter ICAO airport designator
Station Type Date Time Source
SPQU METAR 2022/06/30 02:00 UTC NOAA

SPQU 300200Z 05004KT CAVOK 12/M03 Q1028 RMK PP000


Station Type Date Time Source
SPQU Decoded METAR 2022/06/30 02:00 UTC NOAA

Arequipa, Peru (SPQU) 16-19S 071-33W 2539M
Jun 29, 2022 - 10:00 PM EDT / 2022.06.30 0200 UTC
Wind: from the NE (050 degrees) at 5 MPH (4 KT):0
Visibility: greater than 7 mile(s):0
Temperature: 53 F (12 C)
Dew Point: 26 F (-3 C)
Relative Humidity: 34%
Pressure (altimeter): 30.36 in. Hg (1028 hPa)
ob: SPQU 300200Z 05004KT CAVOK 12/M03 Q1028 RMK PP000
cycle: 2

Station Type Date Time Source
SPQU TAF 2022/06/29 18:33 UTC NOAA

TAF SPQU 291700Z 2918/3018 26010KT CAVOK TX20/2918Z TN07/3010Z
BECMG 3000/3002 03004KT
FM301400 24007KT CAVOK

Example: see airport list